createdAt,value
2023-01-09T00:01:54.624Z,9.60
2023-01-09T00:04:29.418Z,8.77
2023-01-09T00:06:59.248Z,11.65
2023-01-09T00:09:26.472Z,6.13
2023-01-09T00:11:54.977Z,9.30
2023-01-09T00:14:52.762Z,5.45
2023-01-09T00:17:22.444Z,5.68
2023-01-09T00:19:54.175Z,8.45
2023-01-09T00:22:21.220Z,8.10
2023-01-09T00:24:48.792Z,10.52
2023-01-09T00:27:17.704Z,9.15
2023-01-09T00:29:47.857Z,5.93
2023-01-09T00:32:20.614Z,5.78
2023-01-09T00:34:53.426Z,8.50
2023-01-09T00:37:20.734Z,7.00
2023-01-09T00:39:52.610Z,8.82
2023-01-09T00:42:24.785Z,9.85
2023-01-09T00:45:04.730Z,9.00
2023-01-09T00:47:37.237Z,5.00
2023-01-09T00:50:13.945Z,7.05
2023-01-09T00:52:57.143Z,5.47
2023-01-09T00:55:27.661Z,8.05
2023-01-09T00:57:55.869Z,6.18
2023-01-09T01:00:22.944Z,7.55
2023-01-09T01:02:50.034Z,7.47
2023-01-09T01:05:35.673Z,5.88
2023-01-09T01:08:02.822Z,8.90
2023-01-09T01:10:29.919Z,7.07
2023-01-09T01:12:57.223Z,8.27
2023-01-09T01:15:24.398Z,11.73
2023-01-09T01:17:51.387Z,9.43
2023-01-09T01:20:21.583Z,10.65
2023-01-09T01:22:48.770Z,9.63
2023-01-09T01:25:17.330Z,10.98
2023-01-09T01:27:47.600Z,10.10
2023-01-09T01:30:15.778Z,9.52
2023-01-09T01:32:42.971Z,6.93
2023-01-09T01:35:13.214Z,5.40
2023-01-09T01:37:43.608Z,8.25
2023-01-09T01:40:12.348Z,5.57
2023-01-09T01:42:46.723Z,3.72
2023-01-09T01:45:20.545Z,6.97
2023-01-09T01:48:00.421Z,5.90
2023-01-09T01:50:32.354Z,5.15
2023-01-09T01:53:30.166Z,7.57
2023-01-09T01:56:21.243Z,8.50
2023-01-09T01:59:04.845Z,6.97
2023-01-09T02:01:44.619Z,9.35
2023-01-09T02:04:17.876Z,7.63
2023-01-09T02:06:56.818Z,8.52
2023-01-09T02:09:25.456Z,7.38
2023-01-09T02:12:18.503Z,11.68
2023-01-09T02:14:51.178Z,8.70
2023-01-09T02:17:26.138Z,10.98
2023-01-09T02:20:35.952Z,9.55
2023-01-09T02:23:07.576Z,8.82
2023-01-09T02:26:13.215Z,10.88
2023-01-09T02:29:34.847Z,7.35
2023-01-09T02:32:39.562Z,7.00
2023-01-09T02:35:35.976Z,6.28
2023-01-09T02:38:19.217Z,11.38
2023-01-09T02:40:51.002Z,6.93
2023-01-09T02:43:18.184Z,5.32
2023-01-09T02:45:45.264Z,11.13
2023-01-09T02:48:28.060Z,7.05
2023-01-09T02:50:55.223Z,6.30
2023-01-09T02:53:41.922Z,6.03
2023-01-09T02:56:56.601Z,15.48
2023-01-09T02:59:38.368Z,6.32
2023-01-09T03:02:25.945Z,8.95
2023-01-09T03:05:21.785Z,9.00
2023-01-09T03:08:03.305Z,4.80
2023-01-09T03:11:00.308Z,4.68
2023-01-09T03:13:31.124Z,6.55
2023-01-09T03:16:04.155Z,8.52
2023-01-09T03:18:32.694Z,7.10
2023-01-09T03:21:09.630Z,8.75
2023-01-09T03:24:01.686Z,8.93
2023-01-09T03:26:38.509Z,10.00
2023-01-09T03:29:22.789Z,8.95
2023-01-09T03:32:16.670Z,12.43
2023-01-09T03:34:55.054Z,14.10
2023-01-09T03:37:22.006Z,11.70
2023-01-09T03:39:49.240Z,10.98
2023-01-09T03:42:52.791Z,9.13
2023-01-09T03:45:22.482Z,7.95
2023-01-09T03:48:04.449Z,9.05
2023-01-09T03:50:32.096Z,13.15
2023-01-09T03:53:16.661Z,8.13
2023-01-09T03:55:46.181Z,12.10
2023-01-09T03:58:41.048Z,10.85
2023-01-09T04:01:14.021Z,11.75
2023-01-09T04:03:43.848Z,11.48
2023-01-09T04:06:13.954Z,12.00
2023-01-09T04:08:52.715Z,12.82
2023-01-09T04:11:22.541Z,11.43
2023-01-09T04:13:49.675Z,9.45
2023-01-09T04:16:19.435Z,9.25
2023-01-09T04:21:27.579Z,12.85
2023-01-09T04:23:54.605Z,7.22
2023-01-09T04:26:28.169Z,11.82
2023-01-09T04:28:56.656Z,10.80
2023-01-09T04:31:23.890Z,11.85
2023-01-09T04:33:52.345Z,44.85
2023-01-09T04:36:23.813Z,47.88
2023-01-09T04:39:07.111Z,37.15
2023-01-09T04:41:49.634Z,61.28
2023-01-09T04:44:21.306Z,49.65
2023-01-09T04:46:48.517Z,17.67
2023-01-09T04:49:15.817Z,18.40
2023-01-09T04:51:45.509Z,12.70
2023-01-09T04:54:17.854Z,8.60
2023-01-09T04:56:44.837Z,7.45
2023-01-09T04:59:12.269Z,7.63
2023-01-09T05:01:42.151Z,8.98
2023-01-09T05:04:17.271Z,9.10
2023-01-09T05:06:52.346Z,15.07
2023-01-09T05:09:19.766Z,15.38
2023-01-09T05:11:49.586Z,10.95
2023-01-09T05:14:16.661Z,8.80
2023-01-09T05:16:43.803Z,7.30
2023-01-09T05:19:11.129Z,9.20
2023-01-09T05:21:38.764Z,12.05
2023-01-09T05:24:08.656Z,8.35
2023-01-09T05:26:35.794Z,9.35
2023-01-09T05:29:02.847Z,10.50
2023-01-09T05:31:29.949Z,12.38
2023-01-09T05:33:59.410Z,7.38
2023-01-09T05:36:26.670Z,8.70
2023-01-09T05:38:53.763Z,10.35
2023-01-09T05:41:22.531Z,13.55
2023-01-09T05:43:53.513Z,11.25
2023-01-09T05:46:20.839Z,11.32
2023-01-09T05:48:47.888Z,12.88
2023-01-09T05:51:14.876Z,16.10
2023-01-09T05:53:41.928Z,10.07
2023-01-09T05:56:10.777Z,13.70
2023-01-09T05:58:38.983Z,10.00
2023-01-09T06:01:06.386Z,15.10
2023-01-09T06:03:33.671Z,15.98
2023-01-09T06:06:00.775Z,11.90
2023-01-09T06:08:30.396Z,12.77
2023-01-09T06:11:00.671Z,13.65
2023-01-09T06:13:27.854Z,12.57
2023-01-09T06:15:54.802Z,13.57
2023-01-09T06:18:23.971Z,12.85
2023-01-09T06:20:51.279Z,13.57
2023-01-09T06:23:18.363Z,14.05
2023-01-09T06:25:45.283Z,15.88
2023-01-09T06:28:12.237Z,10.27
2023-01-09T06:30:39.246Z,14.48
2023-01-09T06:33:06.242Z,14.00
2023-01-09T06:35:33.244Z,17.50
2023-01-09T06:38:01.977Z,20.55
2023-01-09T06:40:29.035Z,18.85
2023-01-09T06:42:56.028Z,22.60
2023-01-09T06:45:23.212Z,29.05
2023-01-09T06:47:50.275Z,18.90
2023-01-09T06:50:17.536Z,15.30
2023-01-09T06:52:44.449Z,15.00
2023-01-09T06:55:12.816Z,18.15
2023-01-09T06:57:40.467Z,15.77
2023-01-09T07:00:09.589Z,17.90
2023-01-09T07:05:04.401Z,14.15
2023-01-09T07:07:31.727Z,13.40
2023-01-09T07:09:58.914Z,14.13
2023-01-09T07:12:25.966Z,13.02
2023-01-09T07:14:52.922Z,13.65
2023-01-09T07:17:19.905Z,22.02
2023-01-09T07:19:55.071Z,16.67
2023-01-09T07:22:22.103Z,18.90
2023-01-09T07:24:49.281Z,18.85
2023-01-09T07:27:19.707Z,17.02
2023-01-09T07:29:47.199Z,19.05
2023-01-09T07:32:14.261Z,18.48
2023-01-09T07:34:41.734Z,16.67
2023-01-09T07:37:09.235Z,20.77
2023-01-09T07:39:36.300Z,17.13
2023-01-09T07:42:03.634Z,16.38
2023-01-09T07:44:32.141Z,17.30
2023-01-09T07:46:59.437Z,18.70
2023-01-09T07:49:29.323Z,15.57
2023-01-09T07:51:59.426Z,13.73
2023-01-09T07:54:26.451Z,16.75
2023-01-09T07:56:53.547Z,15.50
2023-01-09T07:59:23.794Z,15.43
2023-01-09T08:01:50.891Z,12.88
2023-01-09T08:04:18.030Z,9.85
2023-01-09T08:06:44.919Z,12.20
2023-01-09T08:09:12.320Z,14.00
2023-01-09T08:11:39.364Z,16.83
2023-01-09T08:14:09.475Z,15.23
2023-01-09T08:16:41.908Z,15.90
2023-01-09T08:19:12.234Z,12.15
2023-01-09T08:21:43.599Z,14.30
2023-01-09T08:24:10.653Z,11.73
2023-01-09T08:26:37.665Z,16.40
2023-01-09T08:29:06.717Z,16.55
2023-01-09T08:31:35.976Z,13.43
2023-01-09T08:34:03.225Z,18.95
2023-01-09T08:36:33.928Z,19.60
2023-01-09T08:41:46.703Z,12.70
2023-01-09T08:44:34.581Z,13.70
2023-01-09T08:47:07.613Z,13.27
2023-01-09T08:49:39.278Z,15.73
2023-01-09T08:52:07.101Z,12.35
2023-01-09T08:54:37.065Z,13.60
2023-01-09T08:57:04.194Z,14.52
2023-01-09T08:59:34.746Z,15.70
2023-01-09T09:02:01.869Z,14.43
2023-01-09T09:04:30.684Z,16.88
2023-01-09T09:06:57.764Z,14.63
2023-01-09T09:09:27.672Z,16.30
2023-01-09T09:11:56.865Z,15.85
2023-01-09T09:14:42.530Z,16.73
2023-01-09T09:17:10.017Z,19.83
2023-01-09T09:19:37.116Z,20.30
2023-01-09T09:22:07.237Z,22.65
2023-01-09T09:24:34.457Z,21.08
2023-01-09T09:27:01.521Z,21.00
2023-01-09T09:29:28.549Z,21.23
2023-01-09T09:31:55.554Z,19.58
2023-01-09T09:34:23.436Z,17.77
2023-01-09T09:36:54.304Z,17.88
2023-01-09T09:39:25.027Z,19.35
2023-01-09T09:42:37.351Z,20.50
2023-01-09T09:45:24.658Z,20.30
2023-01-09T09:48:09.951Z,18.33
2023-01-09T09:50:39.754Z,18.17
2023-01-09T09:53:09.638Z,17.98
2023-01-09T09:55:40.157Z,22.00
2023-01-09T09:58:14.196Z,14.55
2023-01-09T10:00:41.562Z,17.35
2023-01-09T10:03:16.521Z,20.88
2023-01-09T10:05:46.672Z,19.83
2023-01-09T10:08:50.958Z,20.48
2023-01-09T10:11:23.830Z,18.65
2023-01-09T10:14:08.414Z,20.63
2023-01-09T10:16:52.201Z,17.92
2023-01-09T10:19:31.287Z,19.92
2023-01-09T10:22:15.574Z,19.15
2023-01-09T10:24:57.872Z,18.55
2023-01-09T10:27:41.530Z,16.23
2023-01-09T10:30:30.415Z,17.55
2023-01-09T10:33:06.321Z,17.65
2023-01-09T10:35:55.671Z,17.38
2023-01-09T10:38:32.394Z,18.65
2023-01-09T10:41:10.914Z,19.77
2023-01-09T10:43:48.776Z,19.88
2023-01-09T10:46:20.607Z,18.05
2023-01-09T10:48:53.535Z,17.80
2023-01-09T10:51:24.632Z,18.95
2023-01-09T10:53:53.024Z,19.92
2023-01-09T10:56:23.936Z,18.08
2023-01-09T10:58:52.071Z,18.30
2023-01-09T11:03:46.785Z,21.30
2023-01-09T11:06:22.935Z,21.98
2023-01-09T11:08:52.303Z,17.17
2023-01-09T11:11:40.791Z,16.33
2023-01-09T11:14:17.758Z,18.02
2023-01-09T11:16:55.048Z,21.52
2023-01-09T11:19:22.761Z,19.55
2023-01-09T11:21:49.906Z,18.30
2023-01-09T11:24:21.230Z,19.90
2023-01-09T11:26:50.488Z,15.98
2023-01-09T11:29:20.302Z,19.48
2023-01-09T11:31:58.551Z,16.73
2023-01-09T11:34:27.806Z,17.40
2023-01-09T11:37:04.157Z,18.70
2023-01-09T11:39:33.620Z,14.48
2023-01-09T11:42:04.239Z,14.95
2023-01-09T11:44:32.571Z,16.60
2023-01-09T11:49:31.343Z,18.17
2023-01-09T11:52:15.284Z,18.58
2023-01-09T11:54:46.928Z,13.45
2023-01-09T11:57:13.947Z,18.70
2023-01-09T11:59:40.981Z,17.90
2023-01-09T12:02:38.909Z,17.80
2023-01-09T12:05:27.249Z,15.68
2023-01-09T12:08:41.734Z,16.10
2023-01-09T12:11:35.160Z,16.40
2023-01-09T12:14:21.011Z,14.52
2023-01-09T12:17:00.486Z,13.85
2023-01-09T12:19:38.094Z,17.38
2023-01-09T12:22:12.533Z,17.35
2023-01-09T12:25:02.488Z,16.02
2023-01-09T12:28:07.468Z,16.92
2023-01-09T12:31:20.347Z,15.80
2023-01-09T12:34:05.665Z,13.65
2023-01-09T12:37:11.694Z,15.18
2023-01-09T12:39:56.893Z,17.48
2023-01-09T12:42:29.922Z,16.08
2023-01-09T12:45:22.811Z,14.45
2023-01-09T12:47:50.486Z,17.05
2023-01-09T12:50:39.180Z,13.20
2023-01-09T12:53:12.065Z,14.20
2023-01-09T12:55:53.358Z,14.55
2023-01-09T12:58:34.180Z,16.33
2023-01-09T13:01:03.822Z,17.33
2023-01-09T13:03:38.617Z,20.27
2023-01-09T13:06:11.342Z,15.80
2023-01-09T13:08:41.505Z,18.98
2023-01-09T13:11:20.349Z,17.48
2023-01-09T13:13:52.551Z,17.98
2023-01-09T13:16:26.368Z,21.88
2023-01-09T13:19:08.303Z,18.15
2023-01-09T13:21:38.846Z,15.70
2023-01-09T13:24:34.957Z,16.30
2023-01-09T13:27:06.436Z,20.85
2023-01-09T13:29:36.887Z,19.10
2023-01-09T13:32:39.590Z,17.08
2023-01-09T13:35:14.496Z,20.05
2023-01-09T13:37:42.556Z,15.45
2023-01-09T13:40:21.645Z,15.18
2023-01-09T13:43:05.774Z,22.70
2023-01-09T13:45:35.112Z,14.63
2023-01-09T13:48:11.342Z,15.13
2023-01-09T13:50:39.183Z,21.42
2023-01-09T13:53:18.533Z,20.17
2023-01-09T13:56:06.193Z,18.35
2023-01-09T13:58:39.710Z,22.25
2023-01-09T14:01:24.950Z,16.58
2023-01-09T14:04:14.873Z,18.85
2023-01-09T14:06:44.175Z,15.00
2023-01-09T14:09:17.031Z,17.58
2023-01-09T14:11:44.268Z,16.67
2023-01-09T14:14:33.355Z,21.52
2023-01-09T14:17:05.416Z,16.95
2023-01-09T14:19:43.328Z,16.50
2023-01-09T14:22:27.681Z,20.00
2023-01-09T14:25:15.906Z,20.27
2023-01-09T14:27:55.164Z,16.08
2023-01-09T14:30:32.032Z,18.50
2023-01-09T14:33:17.681Z,23.33
2023-01-09T14:36:29.413Z,17.50
2023-01-09T14:39:00.987Z,17.10
2023-01-09T14:41:51.052Z,18.70
2023-01-09T14:44:34.847Z,16.92
2023-01-09T14:47:25.654Z,20.15
2023-01-09T14:49:57.096Z,19.35
2023-01-09T14:52:28.177Z,17.42
2023-01-09T14:55:01.544Z,16.98
2023-01-09T14:57:36.923Z,18.77
2023-01-09T15:00:13.259Z,19.80
2023-01-09T15:02:41.654Z,17.13
2023-01-09T15:05:21.460Z,23.20
2023-01-09T15:08:02.687Z,16.63
2023-01-09T15:10:32.437Z,18.08
2023-01-09T15:13:01.651Z,19.88
2023-01-09T15:15:29.417Z,18.88
2023-01-09T15:18:03.268Z,17.45
2023-01-09T15:20:32.422Z,20.73
2023-01-09T15:23:01.181Z,17.77
2023-01-09T15:28:27.868Z,15.57
2023-01-09T15:31:10.816Z,16.33
2023-01-09T15:33:40.149Z,17.90
2023-01-09T15:36:19.071Z,19.80
2023-01-09T15:38:46.404Z,17.67
2023-01-09T15:41:54.965Z,16.48
2023-01-09T15:44:26.434Z,18.13
2023-01-09T15:46:57.063Z,17.83
2023-01-09T15:49:23.954Z,19.95
2023-01-09T15:51:51.238Z,16.95
2023-01-09T15:54:25.928Z,21.48
2023-01-09T15:56:53.146Z,19.75
2023-01-09T15:59:28.960Z,17.38
2023-01-09T16:02:33.727Z,20.40
2023-01-09T16:05:05.934Z,16.80
2023-01-09T16:07:35.051Z,19.85
2023-01-09T16:10:05.416Z,18.58
2023-01-09T16:12:33.693Z,20.45
2023-01-09T16:15:01.734Z,20.02
2023-01-09T16:17:32.329Z,18.17
2023-01-09T16:20:14.606Z,19.10
2023-01-09T16:22:56.734Z,19.92
2023-01-09T16:25:25.833Z,17.95
2023-01-09T16:28:23.296Z,20.63
2023-01-09T16:30:55.924Z,20.17
2023-01-09T16:33:25.450Z,22.08
2023-01-09T16:35:55.297Z,26.25
2023-01-09T16:38:23.221Z,18.73
2023-01-09T16:41:18.349Z,21.40
2023-01-09T16:43:46.177Z,22.67
2023-01-09T16:46:14.804Z,23.05
2023-01-09T16:48:41.889Z,21.17
2023-01-09T16:51:18.786Z,19.45
2023-01-09T16:53:45.675Z,23.20
2023-01-09T16:56:20.568Z,23.90
2023-01-09T16:58:47.911Z,24.58
2023-01-09T17:01:16.316Z,25.83
2023-01-09T17:03:46.299Z,20.50
2023-01-09T17:06:20.403Z,20.77
2023-01-09T17:08:47.491Z,24.02
2023-01-09T17:11:20.338Z,22.30
2023-01-09T17:13:48.287Z,29.42
2023-01-09T17:16:17.049Z,29.60
2023-01-09T17:18:44.937Z,27.40
2023-01-09T17:21:20.987Z,23.45
2023-01-09T17:23:48.541Z,27.15
2023-01-09T17:26:41.141Z,31.50
2023-01-09T17:29:08.223Z,27.08
2023-01-09T17:31:37.921Z,41.83
2023-01-09T17:34:07.365Z,31.88
2023-01-09T17:36:35.203Z,30.33
2023-01-09T17:39:03.539Z,27.45
2023-01-09T17:41:32.051Z,34.92
2023-01-09T17:43:59.803Z,28.55
2023-01-09T17:46:31.713Z,27.88
2023-01-09T17:48:58.893Z,28.05
2023-01-09T17:51:29.482Z,32.75
2023-01-09T17:53:56.846Z,22.65
2023-01-09T17:56:26.586Z,25.60
2023-01-09T17:58:54.124Z,28.65
2023-01-09T18:01:21.494Z,26.17
2023-01-09T18:03:49.166Z,23.55
2023-01-09T18:06:19.456Z,25.58
2023-01-09T18:08:47.061Z,23.00
2023-01-09T18:11:18.006Z,25.20
2023-01-09T18:13:53.784Z,24.50
2023-01-09T18:16:26.487Z,30.50
2023-01-09T18:18:54.531Z,26.77
2023-01-09T18:21:23.352Z,27.95
2023-01-09T18:23:50.281Z,27.00
2023-01-09T18:26:21.140Z,27.58
2023-01-09T18:29:06.394Z,34.92
2023-01-09T18:31:33.585Z,27.35
2023-01-09T18:34:05.476Z,28.48
2023-01-09T18:36:33.847Z,34.13
2023-01-09T18:39:02.633Z,31.65
2023-01-09T18:41:30.288Z,34.83
2023-01-09T18:43:59.728Z,36.33
2023-01-09T18:46:32.360Z,33.28
2023-01-09T18:49:02.291Z,35.40
2023-01-09T18:51:30.065Z,39.40
2023-01-09T18:53:57.433Z,29.10
2023-01-09T18:56:24.956Z,28.05
2023-01-09T18:58:58.002Z,24.75
2023-01-09T19:01:26.265Z,30.92
2023-01-09T19:03:53.560Z,31.52
2023-01-09T19:06:20.809Z,26.92
2023-01-09T19:08:48.051Z,24.40
2023-01-09T19:11:15.547Z,27.52
2023-01-09T19:13:42.612Z,27.08
2023-01-09T19:16:12.546Z,23.33
2023-01-09T19:18:41.365Z,26.75
2023-01-09T19:21:13.663Z,26.17
2023-01-09T19:23:42.051Z,24.60
2023-01-09T19:26:15.483Z,24.15
2023-01-09T19:28:45.468Z,26.50
2023-01-09T19:31:13.641Z,23.45
2023-01-09T19:33:40.630Z,27.38
2023-01-09T19:36:07.881Z,23.50
2023-01-09T19:38:34.875Z,26.77
2023-01-09T19:41:18.956Z,28.10
2023-01-09T19:43:46.416Z,26.85
2023-01-09T19:46:15.813Z,31.70
2023-01-09T19:48:42.984Z,31.00
2023-01-09T19:51:10.654Z,29.75
2023-01-09T19:53:38.050Z,26.30
2023-01-09T19:56:15.774Z,34.75
2023-01-09T20:01:12.509Z,26.05
2023-01-09T20:03:43.943Z,35.55
2023-01-09T20:06:14.469Z,30.23
2023-01-09T20:08:45.177Z,28.70
2023-01-09T20:11:12.438Z,29.58
2023-01-09T20:13:39.967Z,36.72
2023-01-09T20:16:07.909Z,33.22
2023-01-09T20:18:37.520Z,31.00
2023-01-09T20:21:07.591Z,40.33
2023-01-09T20:23:34.859Z,42.60
2023-01-09T20:26:02.496Z,49.08
2023-01-09T20:28:29.656Z,34.75
2023-01-09T20:30:56.962Z,34.33
2023-01-09T20:33:24.542Z,26.52
2023-01-09T20:35:51.622Z,33.55
2023-01-09T20:38:18.654Z,26.02
2023-01-09T20:40:45.734Z,28.38
2023-01-09T20:43:13.988Z,24.67
2023-01-09T20:45:41.187Z,24.40
2023-01-09T20:48:11.147Z,30.85
2023-01-09T20:50:38.604Z,25.70
2023-01-09T20:53:08.070Z,27.42
2023-01-09T20:55:35.358Z,26.52
2023-01-09T20:58:03.589Z,26.65
2023-01-09T21:00:31.699Z,22.35
2023-01-09T21:02:59.780Z,26.67
2023-01-09T21:05:27.283Z,24.52
2023-01-09T21:07:54.270Z,21.17
2023-01-09T21:10:21.414Z,26.65
2023-01-09T21:12:51.128Z,25.73
2023-01-09T21:15:19.998Z,28.17
2023-01-09T21:20:15.088Z,22.27
2023-01-09T21:22:42.525Z,25.98
2023-01-09T21:25:09.909Z,21.85
2023-01-09T21:27:43.345Z,29.02
2023-01-09T21:30:11.238Z,28.50
2023-01-09T21:32:40.517Z,25.58
2023-01-09T21:35:08.237Z,29.00
2023-01-09T21:37:37.595Z,29.95
2023-01-09T21:40:06.956Z,29.88
2023-01-09T21:42:54.958Z,25.98
2023-01-09T21:45:40.237Z,23.05
2023-01-09T21:48:07.514Z,26.50
2023-01-09T21:50:35.732Z,24.30
2023-01-09T21:53:03.195Z,19.65
2023-01-09T21:55:32.903Z,23.92
2023-01-09T21:58:02.552Z,14.50
2023-01-09T22:00:30.021Z,23.83
2023-01-09T22:02:57.233Z,23.35
2023-01-09T22:05:30.079Z,24.48
2023-01-09T22:07:57.246Z,20.30
2023-01-09T22:10:24.549Z,24.48
2023-01-09T22:13:10.576Z,24.77
2023-01-09T22:15:37.600Z,20.83
2023-01-09T22:18:04.690Z,21.33
2023-01-09T22:20:31.681Z,20.58
2023-01-09T22:22:58.558Z,20.30
2023-01-09T22:25:25.619Z,22.35
2023-01-09T22:27:52.476Z,16.17
2023-01-09T22:30:19.386Z,20.73
2023-01-09T22:32:46.352Z,18.42
2023-01-09T22:35:13.424Z,15.90
2023-01-09T22:37:40.607Z,15.82
2023-01-09T22:40:08.202Z,17.30
2023-01-09T22:42:35.182Z,17.60
2023-01-09T22:45:02.185Z,18.23
2023-01-09T22:47:32.140Z,21.67
2023-01-09T22:49:59.154Z,16.75
2023-01-09T22:52:28.302Z,19.27
2023-01-09T22:54:55.302Z,20.17
2023-01-09T22:57:22.211Z,27.38
2023-01-09T22:59:49.264Z,24.13
2023-01-09T23:02:16.386Z,17.98
2023-01-09T23:04:43.420Z,15.77
2023-01-09T23:07:10.721Z,18.02
2023-01-09T23:09:52.764Z,16.00
2023-01-09T23:12:51.576Z,19.15
2023-01-09T23:18:18.929Z,21.08
2023-01-09T23:20:57.356Z,19.25
2023-01-09T23:23:30.799Z,14.32
2023-01-09T23:26:00.963Z,15.70
2023-01-09T23:28:28.350Z,14.52
2023-01-09T23:30:57.583Z,18.48
2023-01-09T23:33:24.669Z,18.58
2023-01-09T23:35:51.814Z,17.80
2023-01-09T23:38:19.062Z,15.00
2023-01-09T23:40:49.363Z,14.02
2023-01-09T23:43:16.396Z,14.27
2023-01-09T23:45:45.274Z,15.40
2023-01-09T23:48:14.171Z,18.73
2023-01-09T23:50:48.728Z,15.95
2023-01-09T23:53:16.711Z,15.82
2023-01-09T23:55:43.947Z,16.58
2023-01-09T23:58:11.590Z,21.17
